sensor_id;sensor_type;location;lat;lon;timestamp;temperature;humidity
11599;DHT22;5855;48.840;9.188;2023-03-16T00:00:06;-1.20;99.90
11599;DHT22;5855;48.840;9.188;2023-03-16T00:02:35;-1.20;99.90
11599;DHT22;5855;48.840;9.188;2023-03-16T00:05:03;-1.20;99.90
11599;DHT22;5855;48.840;9.188;2023-03-16T00:07:31;-1.20;99.90
11599;DHT22;5855;48.840;9.188;2023-03-16T00:09:59;-1.30;99.90
11599;DHT22;5855;48.840;9.188;2023-03-16T00:12:26;-1.20;99.90
11599;DHT22;5855;48.840;9.188;2023-03-16T00:14:53;-1.30;99.90
11599;DHT22;5855;48.840;9.188;2023-03-16T00:17:20;-1.30;99.90
11599;DHT22;5855;48.840;9.188;2023-03-16T00:19:50;-1.30;99.90
11599;DHT22;5855;48.840;9.188;2023-03-16T00:22:19;-1.30;99.90
11599;DHT22;5855;48.840;9.188;2023-03-16T00:24:48;-1.30;99.90
11599;DHT22;5855;48.840;9.188;2023-03-16T00:27:16;-1.20;99.90
11599;DHT22;5855;48.840;9.188;2023-03-16T00:29:44;-1.20;99.90
11599;DHT22;5855;48.840;9.188;2023-03-16T00:32:16;-1.20;99.90
11599;DHT22;5855;48.840;9.188;2023-03-16T00:34:45;-1.30;99.90
11599;DHT22;5855;48.840;9.188;2023-03-16T00:37:14;-1.30;99.90
11599;DHT22;5855;48.840;9.188;2023-03-16T00:39:42;-1.30;99.90
11599;DHT22;5855;48.840;9.188;2023-03-16T00:42:13;-1.30;99.90
11599;DHT22;5855;48.840;9.188;2023-03-16T00:44:41;-1.30;99.90
11599;DHT22;5855;48.840;9.188;2023-03-16T00:47:08;-1.30;99.90
11599;DHT22;5855;48.840;9.188;2023-03-16T00:49:39;-1.30;99.90
11599;DHT22;5855;48.840;9.188;2023-03-16T00:52:11;-1.40;99.90
11599;DHT22;5855;48.840;9.188;2023-03-16T00:54:40;-1.40;99.90
11599;DHT22;5855;48.840;9.188;2023-03-16T00:57:11;-1.30;99.90
11599;DHT22;5855;48.840;9.188;2023-03-16T00:59:39;-1.30;99.90
11599;DHT22;5855;48.840;9.188;2023-03-16T01:02:07;-1.40;99.90
11599;DHT22;5855;48.840;9.188;2023-03-16T01:04:35;-1.40;99.90
11599;DHT22;5855;48.840;9.188;2023-03-16T01:07:02;-1.50;99.90
11599;DHT22;5855;48.840;9.188;2023-03-16T01:09:48;-1.50;99.90
11599;DHT22;5855;48.840;9.188;2023-03-16T01:12:18;-1.60;99.90
11599;DHT22;5855;48.840;9.188;2023-03-16T01:14:45;-1.60;99.90
11599;DHT22;5855;48.840;9.188;2023-03-16T01:17:14;-1.60;99.90
11599;DHT22;5855;48.840;9.188;2023-03-16T01:19:42;-1.60;99.90
11599;DHT22;5855;48.840;9.188;2023-03-16T01:22:10;-1.60;99.90
11599;DHT22;5855;48.840;9.188;2023-03-16T01:24:38;-1.60;99.90
11599;DHT22;5855;48.840;9.188;2023-03-16T01:27:05;-1.60;99.90
11599;DHT22;5855;48.840;9.188;2023-03-16T01:29:34;-1.70;99.90
11599;DHT22;5855;48.840;9.188;2023-03-16T01:32:01;-1.70;99.90
11599;DHT22;5855;48.840;9.188;2023-03-16T01:34:29;-1.70;99.90
11599;DHT22;5855;48.840;9.188;2023-03-16T01:36:56;-1.70;99.90
11599;DHT22;5855;48.840;9.188;2023-03-16T01:39:23;-1.70;99.90
11599;DHT22;5855;48.840;9.188;2023-03-16T01:41:50;-1.70;99.90
11599;DHT22;5855;48.840;9.188;2023-03-16T01:44:20;-1.70;99.90
11599;DHT22;5855;48.840;9.188;2023-03-16T01:46:50;-1.80;99.90
11599;DHT22;5855;48.840;9.188;2023-03-16T01:49:19;-1.80;99.90
11599;DHT22;5855;48.840;9.188;2023-03-16T01:51:52;-1.80;99.90
11599;DHT22;5855;48.840;9.188;2023-03-16T01:54:24;-1.90;99.90
11599;DHT22;5855;48.840;9.188;2023-03-16T01:56:57;-1.90;99.90
11599;DHT22;5855;48.840;9.188;2023-03-16T01:59:28;-1.90;99.90
11599;DHT22;5855;48.840;9.188;2023-03-16T02:01:58;-1.90;99.90
11599;DHT22;5855;48.840;9.188;2023-03-16T02:04:35;-1.90;99.90
11599;DHT22;5855;48.840;9.188;2023-03-16T02:07:06;-1.90;99.90
11599;DHT22;5855;48.840;9.188;2023-03-16T02:09:35;-1.90;99.90
11599;DHT22;5855;48.840;9.188;2023-03-16T02:12:03;-1.90;99.90
11599;DHT22;5855;48.840;9.188;2023-03-16T02:14:31;-1.80;99.90
11599;DHT22;5855;48.840;9.188;2023-03-16T02:16:59;-1.80;99.90
11599;DHT22;5855;48.840;9.188;2023-03-16T02:19:34;-1.80;99.90
11599;DHT22;5855;48.840;9.188;2023-03-16T02:22:03;-1.80;99.90
11599;DHT22;5855;48.840;9.188;2023-03-16T02:24:31;-1.80;99.90
11599;DHT22;5855;48.840;9.188;2023-03-16T02:27:01;-1.80;99.90
11599;DHT22;5855;48.840;9.188;2023-03-16T02:29:56;-1.80;99.90
11599;DHT22;5855;48.840;9.188;2023-03-16T02:32:26;-1.80;99.90
11599;DHT22;5855;48.840;9.188;2023-03-16T02:34:55;-1.70;99.90
11599;DHT22;5855;48.840;9.188;2023-03-16T02:37:23;-1.70;99.90
11599;DHT22;5855;48.840;9.188;2023-03-16T02:39:51;-1.70;99.90
11599;DHT22;5855;48.840;9.188;2023-03-16T02:42:20;-1.70;99.90
11599;DHT22;5855;48.840;9.188;2023-03-16T02:44:51;-1.70;99.90
11599;DHT22;5855;48.840;9.188;2023-03-16T02:47:29;-1.80;99.90
11599;DHT22;5855;48.840;9.188;2023-03-16T02:49:57;-1.80;99.90
11599;DHT22;5855;48.840;9.188;2023-03-16T02:52:25;-1.80;99.90
11599;DHT22;5855;48.840;9.188;2023-03-16T02:54:52;-1.80;99.90
11599;DHT22;5855;48.840;9.188;2023-03-16T02:57:18;-1.80;99.90
11599;DHT22;5855;48.840;9.188;2023-03-16T02:59:46;-1.80;99.90
11599;DHT22;5855;48.840;9.188;2023-03-16T03:02:13;-1.80;99.90
11599;DHT22;5855;48.840;9.188;2023-03-16T03:04:41;-1.80;99.90
11599;DHT22;5855;48.840;9.188;2023-03-16T03:07:11;-1.80;99.90
11599;DHT22;5855;48.840;9.188;2023-03-16T03:09:39;-1.80;99.90
11599;DHT22;5855;48.840;9.188;2023-03-16T03:12:07;-1.80;99.90
11599;DHT22;5855;48.840;9.188;2023-03-16T03:14:35;-1.80;99.90
11599;DHT22;5855;48.840;9.188;2023-03-16T03:17:02;-1.70;99.90
11599;DHT22;5855;48.840;9.188;2023-03-16T03:19:29;-1.80;99.90
11599;DHT22;5855;48.840;9.188;2023-03-16T03:22:00;-1.70;99.90
11599;DHT22;5855;48.840;9.188;2023-03-16T03:24:29;-1.70;99.90
11599;DHT22;5855;48.840;9.188;2023-03-16T03:26:56;-1.70;99.90
11599;DHT22;5855;48.840;9.188;2023-03-16T03:29:25;-1.70;99.90
11599;DHT22;5855;48.840;9.188;2023-03-16T03:31:59;-1.70;99.90
11599;DHT22;5855;48.840;9.188;2023-03-16T03:34:26;-1.70;99.90
11599;DHT22;5855;48.840;9.188;2023-03-16T03:36:53;-1.60;99.90
11599;DHT22;5855;48.840;9.188;2023-03-16T03:39:21;-1.60;99.90
11599;DHT22;5855;48.840;9.188;2023-03-16T03:41:48;-1.60;99.90
11599;DHT22;5855;48.840;9.188;2023-03-16T03:44:19;-1.60;99.90
11599;DHT22;5855;48.840;9.188;2023-03-16T03:46:46;-1.50;99.90
11599;DHT22;5855;48.840;9.188;2023-03-16T03:49:13;-1.50;99.90
11599;DHT22;5855;48.840;9.188;2023-03-16T03:51:40;-1.50;99.90
11599;DHT22;5855;48.840;9.188;2023-03-16T03:54:07;-1.50;99.90
11599;DHT22;5855;48.840;9.188;2023-03-16T03:56:35;-1.60;99.90
11599;DHT22;5855;48.840;9.188;2023-03-16T03:59:02;-1.60;99.90
11599;DHT22;5855;48.840;9.188;2023-03-16T04:01:29;-1.60;99.90
11599;DHT22;5855;48.840;9.188;2023-03-16T04:03:56;-1.60;99.90
11599;DHT22;5855;48.840;9.188;2023-03-16T04:06:23;-1.60;99.90
11599;DHT22;5855;48.840;9.188;2023-03-16T04:08:50;-1.60;99.90
11599;DHT22;5855;48.840;9.188;2023-03-16T04:11:18;-1.60;99.90
11599;DHT22;5855;48.840;9.188;2023-03-16T04:13:47;-1.60;99.90
11599;DHT22;5855;48.840;9.188;2023-03-16T04:16:16;-1.60;99.90
11599;DHT22;5855;48.840;9.188;2023-03-16T04:18:43;-1.60;99.90
11599;DHT22;5855;48.840;9.188;2023-03-16T04:21:13;-1.60;99.90
11599;DHT22;5855;48.840;9.188;2023-03-16T04:23:41;-1.60;99.90
11599;DHT22;5855;48.840;9.188;2023-03-16T04:26:08;-1.60;99.90
11599;DHT22;5855;48.840;9.188;2023-03-16T04:28:35;-1.60;99.90
11599;DHT22;5855;48.840;9.188;2023-03-16T04:31:05;-1.70;99.90
11599;DHT22;5855;48.840;9.188;2023-03-16T04:33:32;-1.70;99.90
11599;DHT22;5855;48.840;9.188;2023-03-16T04:36:00;-1.70;99.90
11599;DHT22;5855;48.840;9.188;2023-03-16T04:38:28;-1.70;99.90
11599;DHT22;5855;48.840;9.188;2023-03-16T04:40:55;-1.70;99.90
11599;DHT22;5855;48.840;9.188;2023-03-16T04:43:22;-1.70;99.90
11599;DHT22;5855;48.840;9.188;2023-03-16T04:45:49;-1.80;99.90
11599;DHT22;5855;48.840;9.188;2023-03-16T04:48:17;-1.80;99.90
11599;DHT22;5855;48.840;9.188;2023-03-16T04:50:47;-1.80;99.90
11599;DHT22;5855;48.840;9.188;2023-03-16T04:53:15;-1.80;99.90
11599;DHT22;5855;48.840;9.188;2023-03-16T04:55:43;-1.80;99.90
11599;DHT22;5855;48.840;9.188;2023-03-16T04:58:10;-1.80;99.90
11599;DHT22;5855;48.840;9.188;2023-03-16T05:00:38;-1.80;99.90
11599;DHT22;5855;48.840;9.188;2023-03-16T05:03:05;-1.80;99.90
11599;DHT22;5855;48.840;9.188;2023-03-16T05:05:33;-1.80;99.90
11599;DHT22;5855;48.840;9.188;2023-03-16T05:08:00;-1.80;99.90
11599;DHT22;5855;48.840;9.188;2023-03-16T05:10:28;-1.80;99.90
11599;DHT22;5855;48.840;9.188;2023-03-16T05:12:54;-1.80;99.90
11599;DHT22;5855;48.840;9.188;2023-03-16T05:15:21;-1.80;99.90
11599;DHT22;5855;48.840;9.188;2023-03-16T05:17:48;-1.80;99.90
11599;DHT22;5855;48.840;9.188;2023-03-16T05:20:16;-1.80;99.90
11599;DHT22;5855;48.840;9.188;2023-03-16T05:22:45;-1.80;99.90
11599;DHT22;5855;48.840;9.188;2023-03-16T05:25:13;-1.80;99.90
11599;DHT22;5855;48.840;9.188;2023-03-16T05:27:40;-1.90;99.90
11599;DHT22;5855;48.840;9.188;2023-03-16T05:30:08;-1.80;99.90
11599;DHT22;5855;48.840;9.188;2023-03-16T05:32:35;-1.80;99.90
11599;DHT22;5855;48.840;9.188;2023-03-16T05:35:02;-1.80;99.90
11599;DHT22;5855;48.840;9.188;2023-03-16T05:37:29;-1.80;99.90
11599;DHT22;5855;48.840;9.188;2023-03-16T05:39:58;-1.80;99.90
11599;DHT22;5855;48.840;9.188;2023-03-16T05:42:24;-1.80;99.90
11599;DHT22;5855;48.840;9.188;2023-03-16T05:44:52;-1.80;99.90
11599;DHT22;5855;48.840;9.188;2023-03-16T05:47:19;-1.80;99.90
11599;DHT22;5855;48.840;9.188;2023-03-16T05:49:46;-1.80;99.90
11599;DHT22;5855;48.840;9.188;2023-03-16T05:52:13;-1.80;99.90
11599;DHT22;5855;48.840;9.188;2023-03-16T05:54:40;-1.70;99.90
11599;DHT22;5855;48.840;9.188;2023-03-16T05:57:09;-1.70;99.90
11599;DHT22;5855;48.840;9.188;2023-03-16T05:59:35;-1.70;99.90
11599;DHT22;5855;48.840;9.188;2023-03-16T06:02:02;-1.60;99.90
11599;DHT22;5855;48.840;9.188;2023-03-16T06:04:29;-1.60;99.90
11599;DHT22;5855;48.840;9.188;2023-03-16T06:06:56;-1.60;99.90
11599;DHT22;5855;48.840;9.188;2023-03-16T06:09:23;-1.60;99.90
11599;DHT22;5855;48.840;9.188;2023-03-16T06:11:50;-1.50;99.90
11599;DHT22;5855;48.840;9.188;2023-03-16T06:14:18;-1.50;99.90
11599;DHT22;5855;48.840;9.188;2023-03-16T06:16:45;-1.40;99.90
11599;DHT22;5855;48.840;9.188;2023-03-16T06:19:12;-1.40;99.90
11599;DHT22;5855;48.840;9.188;2023-03-16T06:21:39;-1.30;99.90
11599;DHT22;5855;48.840;9.188;2023-03-16T06:24:06;-1.30;99.90
11599;DHT22;5855;48.840;9.188;2023-03-16T06:26:33;-1.20;99.90
11599;DHT22;5855;48.840;9.188;2023-03-16T06:29:00;-1.10;99.90
11599;DHT22;5855;48.840;9.188;2023-03-16T06:31:29;-1.00;99.90
11599;DHT22;5855;48.840;9.188;2023-03-16T06:33:58;-1.00;99.90
11599;DHT22;5855;48.840;9.188;2023-03-16T06:36:25;-0.90;99.90
11599;DHT22;5855;48.840;9.188;2023-03-16T06:38:52;-0.80;99.90
11599;DHT22;5855;48.840;9.188;2023-03-16T06:41:19;-0.70;99.90
11599;DHT22;5855;48.840;9.188;2023-03-16T06:43:45;-0.60;99.90
11599;DHT22;5855;48.840;9.188;2023-03-16T06:46:12;-0.50;99.90
11599;DHT22;5855;48.840;9.188;2023-03-16T06:48:40;-0.50;99.90
11599;DHT22;5855;48.840;9.188;2023-03-16T06:51:07;-0.40;99.90
11599;DHT22;5855;48.840;9.188;2023-03-16T06:53:34;-0.30;99.90
11599;DHT22;5855;48.840;9.188;2023-03-16T06:56:01;-0.20;99.90
11599;DHT22;5855;48.840;9.188;2023-03-16T06:58:28;-0.10;99.90
11599;DHT22;5855;48.840;9.188;2023-03-16T07:00:55;-0.10;99.90
11599;DHT22;5855;48.840;9.188;2023-03-16T07:03:22;0.00;99.90
11599;DHT22;5855;48.840;9.188;2023-03-16T07:05:50;0.10;99.90
11599;DHT22;5855;48.840;9.188;2023-03-16T07:08:17;0.30;99.90
11599;DHT22;5855;48.840;9.188;2023-03-16T07:10:44;0.40;99.90
11599;DHT22;5855;48.840;9.188;2023-03-16T07:13:10;0.50;99.90
11599;DHT22;5855;48.840;9.188;2023-03-16T07:15:38;0.60;99.90
11599;DHT22;5855;48.840;9.188;2023-03-16T07:18:05;0.70;99.90
11599;DHT22;5855;48.840;9.188;2023-03-16T07:20:32;0.90;99.90
11599;DHT22;5855;48.840;9.188;2023-03-16T07:23:01;1.00;99.90
11599;DHT22;5855;48.840;9.188;2023-03-16T07:25:32;1.20;99.90
11599;DHT22;5855;48.840;9.188;2023-03-16T07:27:59;1.30;99.90
11599;DHT22;5855;48.840;9.188;2023-03-16T07:30:32;1.50;99.90
11599;DHT22;5855;48.840;9.188;2023-03-16T07:32:59;1.60;99.90
11599;DHT22;5855;48.840;9.188;2023-03-16T07:35:26;1.80;99.90
11599;DHT22;5855;48.840;9.188;2023-03-16T07:37:54;1.90;99.90
11599;DHT22;5855;48.840;9.188;2023-03-16T07:40:24;2.00;99.90
11599;DHT22;5855;48.840;9.188;2023-03-16T07:42:51;2.10;99.90
11599;DHT22;5855;48.840;9.188;2023-03-16T07:45:23;2.20;99.90
11599;DHT22;5855;48.840;9.188;2023-03-16T07:47:50;2.40;99.90
11599;DHT22;5855;48.840;9.188;2023-03-16T07:50:17;2.50;99.90
11599;DHT22;5855;48.840;9.188;2023-03-16T07:52:45;2.50;99.90
11599;DHT22;5855;48.840;9.188;2023-03-16T07:55:13;2.60;99.90
11599;DHT22;5855;48.840;9.188;2023-03-16T07:57:42;2.80;99.90
11599;DHT22;5855;48.840;9.188;2023-03-16T08:00:13;2.90;99.90
11599;DHT22;5855;48.840;9.188;2023-03-16T08:02:40;3.00;99.90
11599;DHT22;5855;48.840;9.188;2023-03-16T08:05:09;3.20;99.90
11599;DHT22;5855;48.840;9.188;2023-03-16T08:07:35;3.30;99.90
11599;DHT22;5855;48.840;9.188;2023-03-16T08:10:03;3.50;99.90
11599;DHT22;5855;48.840;9.188;2023-03-16T08:12:31;3.70;99.90
11599;DHT22;5855;48.840;9.188;2023-03-16T08:14:59;3.90;99.90
11599;DHT22;5855;48.840;9.188;2023-03-16T08:17:29;4.10;99.90
11599;DHT22;5855;48.840;9.188;2023-03-16T08:19:56;4.30;99.90
11599;DHT22;5855;48.840;9.188;2023-03-16T08:22:24;4.50;99.90
11599;DHT22;5855;48.840;9.188;2023-03-16T08:24:51;4.60;99.90
11599;DHT22;5855;48.840;9.188;2023-03-16T08:27:18;4.80;99.90
11599;DHT22;5855;48.840;9.188;2023-03-16T08:29:45;5.10;99.90
11599;DHT22;5855;48.840;9.188;2023-03-16T08:32:13;5.20;99.90
11599;DHT22;5855;48.840;9.188;2023-03-16T08:34:40;5.50;99.90
11599;DHT22;5855;48.840;9.188;2023-03-16T08:37:07;5.60;99.90
11599;DHT22;5855;48.840;9.188;2023-03-16T08:39:34;5.90;99.90
11599;DHT22;5855;48.840;9.188;2023-03-16T08:42:01;6.10;99.90
11599;DHT22;5855;48.840;9.188;2023-03-16T08:44:28;6.30;99.90
11599;DHT22;5855;48.840;9.188;2023-03-16T08:46:55;6.40;99.90
11599;DHT22;5855;48.840;9.188;2023-03-16T08:49:23;6.60;99.90
11599;DHT22;5855;48.840;9.188;2023-03-16T08:51:50;6.80;99.90
11599;DHT22;5855;48.840;9.188;2023-03-16T08:54:18;7.00;99.90
11599;DHT22;5855;48.840;9.188;2023-03-16T08:56:45;7.00;99.90
11599;DHT22;5855;48.840;9.188;2023-03-16T08:59:12;7.20;99.90
11599;DHT22;5855;48.840;9.188;2023-03-16T09:01:39;7.30;99.90
11599;DHT22;5855;48.840;9.188;2023-03-16T09:04:06;7.30;99.90
11599;DHT22;5855;48.840;9.188;2023-03-16T09:06:34;7.40;99.90
11599;DHT22;5855;48.840;9.188;2023-03-16T09:09:01;7.30;99.90
11599;DHT22;5855;48.840;9.188;2023-03-16T09:11:29;7.40;99.90
11599;DHT22;5855;48.840;9.188;2023-03-16T09:13:58;7.50;99.90
11599;DHT22;5855;48.840;9.188;2023-03-16T09:16:25;7.60;99.90
11599;DHT22;5855;48.840;9.188;2023-03-16T09:18:52;7.60;99.90
11599;DHT22;5855;48.840;9.188;2023-03-16T09:21:20;7.80;99.90
11599;DHT22;5855;48.840;9.188;2023-03-16T09:23:49;7.90;99.90
11599;DHT22;5855;48.840;9.188;2023-03-16T09:26:15;7.90;99.90
11599;DHT22;5855;48.840;9.188;2023-03-16T09:28:43;8.10;99.90
11599;DHT22;5855;48.840;9.188;2023-03-16T09:31:15;8.30;99.90
11599;DHT22;5855;48.840;9.188;2023-03-16T09:33:42;8.60;99.90
11599;DHT22;5855;48.840;9.188;2023-03-16T09:36:09;8.90;99.90
11599;DHT22;5855;48.840;9.188;2023-03-16T09:38:36;9.00;99.90
11599;DHT22;5855;48.840;9.188;2023-03-16T09:41:08;8.90;99.90
11599;DHT22;5855;48.840;9.188;2023-03-16T09:43:54;8.90;99.90
11599;DHT22;5855;48.840;9.188;2023-03-16T09:46:25;9.00;99.90
11599;DHT22;5855;48.840;9.188;2023-03-16T09:48:54;9.20;99.90
11599;DHT22;5855;48.840;9.188;2023-03-16T09:51:27;9.80;99.90
11599;DHT22;5855;48.840;9.188;2023-03-16T09:54:01;10.30;99.90
11599;DHT22;5855;48.840;9.188;2023-03-16T09:56:34;10.50;99.90
11599;DHT22;5855;48.840;9.188;2023-03-16T09:59:04;10.50;99.90
11599;DHT22;5855;48.840;9.188;2023-03-16T10:01:42;10.70;99.90
11599;DHT22;5855;48.840;9.188;2023-03-16T10:04:20;10.80;99.90
11599;DHT22;5855;48.840;9.188;2023-03-16T10:06:58;10.60;99.90
11599;DHT22;5855;48.840;9.188;2023-03-16T10:09:32;11.20;99.90
11599;DHT22;5855;48.840;9.188;2023-03-16T10:12:05;11.30;99.90
11599;DHT22;5855;48.840;9.188;2023-03-16T10:14:40;11.70;99.90
11599;DHT22;5855;48.840;9.188;2023-03-16T10:17:14;11.80;99.90
11599;DHT22;5855;48.840;9.188;2023-03-16T10:19:46;12.10;99.90
11599;DHT22;5855;48.840;9.188;2023-03-16T10:22:18;11.80;99.90
11599;DHT22;5855;48.840;9.188;2023-03-16T10:24:55;12.00;99.90
11599;DHT22;5855;48.840;9.188;2023-03-16T10:27:28;11.90;99.80
11599;DHT22;5855;48.840;9.188;2023-03-16T10:29:56;11.90;99.90
11599;DHT22;5855;48.840;9.188;2023-03-16T10:32:23;11.50;99.80
11599;DHT22;5855;48.840;9.188;2023-03-16T10:34:57;11.80;99.90
11599;DHT22;5855;48.840;9.188;2023-03-16T10:37:25;11.90;99.90
11599;DHT22;5855;48.840;9.188;2023-03-16T10:39:55;12.30;99.70
11599;DHT22;5855;48.840;9.188;2023-03-16T10:42:27;12.70;98.80
11599;DHT22;5855;48.840;9.188;2023-03-16T10:44:57;12.70;96.90
11599;DHT22;5855;48.840;9.188;2023-03-16T10:47:28;12.40;97.80
11599;DHT22;5855;48.840;9.188;2023-03-16T10:49:56;13.00;98.00
11599;DHT22;5855;48.840;9.188;2023-03-16T10:52:31;13.70;95.60
11599;DHT22;5855;48.840;9.188;2023-03-16T10:55:05;13.80;94.60
11599;DHT22;5855;48.840;9.188;2023-03-16T10:57:35;14.40;95.20
11599;DHT22;5855;48.840;9.188;2023-03-16T11:00:10;15.20;92.90
11599;DHT22;5855;48.840;9.188;2023-03-16T11:02:38;15.60;91.00
11599;DHT22;5855;48.840;9.188;2023-03-16T11:05:13;15.10;90.40
11599;DHT22;5855;48.840;9.188;2023-03-16T11:07:47;15.80;90.40
11599;DHT22;5855;48.840;9.188;2023-03-16T11:10:24;16.90;86.20
11599;DHT22;5855;48.840;9.188;2023-03-16T11:12:53;18.10;78.90
11599;DHT22;5855;48.840;9.188;2023-03-16T11:15:20;19.20;73.40
11599;DHT22;5855;48.840;9.188;2023-03-16T11:17:49;19.30;71.10
11599;DHT22;5855;48.840;9.188;2023-03-16T11:20:22;19.40;67.60
11599;DHT22;5855;48.840;9.188;2023-03-16T11:22:50;20.30;64.20
11599;DHT22;5855;48.840;9.188;2023-03-16T11:25:20;21.10;59.00
11599;DHT22;5855;48.840;9.188;2023-03-16T11:27:55;21.50;54.60
11599;DHT22;5855;48.840;9.188;2023-03-16T11:30:27;21.90;54.10
11599;DHT22;5855;48.840;9.188;2023-03-16T11:32:55;23.00;51.60
11599;DHT22;5855;48.840;9.188;2023-03-16T11:35:32;23.00;47.40
11599;DHT22;5855;48.840;9.188;2023-03-16T11:38:10;22.30;46.20
11599;DHT22;5855;48.840;9.188;2023-03-16T11:40:43;22.50;44.60
11599;DHT22;5855;48.840;9.188;2023-03-16T11:43:31;22.20;45.10
11599;DHT22;5855;48.840;9.188;2023-03-16T11:46:09;22.60;43.80
11599;DHT22;5855;48.840;9.188;2023-03-16T11:48:39;22.70;42.20
11599;DHT22;5855;48.840;9.188;2023-03-16T11:51:12;22.80;42.50
11599;DHT22;5855;48.840;9.188;2023-03-16T11:53:49;23.10;42.20
11599;DHT22;5855;48.840;9.188;2023-03-16T11:56:29;23.80;40.10
11599;DHT22;5855;48.840;9.188;2023-03-16T11:59:13;24.90;38.70
11599;DHT22;5855;48.840;9.188;2023-03-16T12:01:57;26.10;35.70
11599;DHT22;5855;48.840;9.188;2023-03-16T12:07:36;26.80;34.40
11599;DHT22;5855;48.840;9.188;2023-03-16T12:10:14;27.10;31.70
11599;DHT22;5855;48.840;9.188;2023-03-16T12:12:52;26.10;28.90
11599;DHT22;5855;48.840;9.188;2023-03-16T12:15:31;24.60;30.00
11599;DHT22;5855;48.840;9.188;2023-03-16T12:18:07;25.40;31.70
11599;DHT22;5855;48.840;9.188;2023-03-16T12:20:42;26.60;30.00
11599;DHT22;5855;48.840;9.188;2023-03-16T12:23:14;27.70;29.30
11599;DHT22;5855;48.840;9.188;2023-03-16T12:25:47;28.60;27.70
11599;DHT22;5855;48.840;9.188;2023-03-16T12:28:21;29.10;26.60
11599;DHT22;5855;48.840;9.188;2023-03-16T12:30:59;30.10;25.20
11599;DHT22;5855;48.840;9.188;2023-03-16T12:33:45;30.30;23.10
11599;DHT22;5855;48.840;9.188;2023-03-16T12:36:38;27.80;24.40
11599;DHT22;5855;48.840;9.188;2023-03-16T12:39:10;25.60;26.30
11599;DHT22;5855;48.840;9.188;2023-03-16T12:41:46;24.50;27.50
11599;DHT22;5855;48.840;9.188;2023-03-16T12:44:21;24.70;27.10
11599;DHT22;5855;48.840;9.188;2023-03-16T12:46:54;24.90;27.40
11599;DHT22;5855;48.840;9.188;2023-03-16T12:49:24;24.10;27.20
11599;DHT22;5855;48.840;9.188;2023-03-16T12:52:00;24.60;28.20
11599;DHT22;5855;48.840;9.188;2023-03-16T12:54:27;25.00;28.40
11599;DHT22;5855;48.840;9.188;2023-03-16T12:57:00;25.50;28.00
11599;DHT22;5855;48.840;9.188;2023-03-16T12:59:35;25.80;27.90
11599;DHT22;5855;48.840;9.188;2023-03-16T13:02:10;26.40;27.30
11599;DHT22;5855;48.840;9.188;2023-03-16T13:04:41;26.30;26.10
11599;DHT22;5855;48.840;9.188;2023-03-16T13:07:16;25.80;27.00
11599;DHT22;5855;48.840;9.188;2023-03-16T13:09:47;26.50;26.10
11599;DHT22;5855;48.840;9.188;2023-03-16T13:12:23;26.40;25.50
11599;DHT22;5855;48.840;9.188;2023-03-16T13:14:51;26.90;26.30
11599;DHT22;5855;48.840;9.188;2023-03-16T13:17:28;28.70;24.50
11599;DHT22;5855;48.840;9.188;2023-03-16T13:20:25;29.60;23.60
11599;DHT22;5855;48.840;9.188;2023-03-16T13:23:08;29.90;22.80
11599;DHT22;5855;48.840;9.188;2023-03-16T13:25:58;31.20;22.30
11599;DHT22;5855;48.840;9.188;2023-03-16T13:28:29;33.10;20.60
11599;DHT22;5855;48.840;9.188;2023-03-16T13:30:57;33.50;20.20
11599;DHT22;5855;48.840;9.188;2023-03-16T13:33:29;32.40;19.30
11599;DHT22;5855;48.840;9.188;2023-03-16T13:35:58;31.50;20.30
11599;DHT22;5855;48.840;9.188;2023-03-16T13:38:26;29.60;20.40
11599;DHT22;5855;48.840;9.188;2023-03-16T13:40:55;25.50;23.10
11599;DHT22;5855;48.840;9.188;2023-03-16T13:43:25;24.50;24.90
11599;DHT22;5855;48.840;9.188;2023-03-16T13:45:53;24.40;25.20
11599;DHT22;5855;48.840;9.188;2023-03-16T13:48:21;24.50;25.70
11599;DHT22;5855;48.840;9.188;2023-03-16T13:50:52;24.90;25.90
11599;DHT22;5855;48.840;9.188;2023-03-16T13:53:22;23.40;25.50
11599;DHT22;5855;48.840;9.188;2023-03-16T13:55:51;22.80;26.20
11599;DHT22;5855;48.840;9.188;2023-03-16T13:58:22;22.40;27.00
11599;DHT22;5855;48.840;9.188;2023-03-16T14:00:54;22.20;27.70
11599;DHT22;5855;48.840;9.188;2023-03-16T14:03:21;22.60;28.10
11599;DHT22;5855;48.840;9.188;2023-03-16T14:05:50;24.20;28.00
11599;DHT22;5855;48.840;9.188;2023-03-16T14:08:20;26.70;25.50
11599;DHT22;5855;48.840;9.188;2023-03-16T14:10:48;29.20;23.50
11599;DHT22;5855;48.840;9.188;2023-03-16T14:13:24;31.00;22.00
11599;DHT22;5855;48.840;9.188;2023-03-16T14:15:53;33.20;20.40
11599;DHT22;5855;48.840;9.188;2023-03-16T14:18:22;33.40;19.40
11599;DHT22;5855;48.840;9.188;2023-03-16T14:20:52;34.00;18.50
11599;DHT22;5855;48.840;9.188;2023-03-16T14:23:21;34.00;18.00
11599;DHT22;5855;48.840;9.188;2023-03-16T14:25:49;34.50;17.60
11599;DHT22;5855;48.840;9.188;2023-03-16T14:28:21;34.50;17.60
11599;DHT22;5855;48.840;9.188;2023-03-16T14:30:53;34.00;17.40
11599;DHT22;5855;48.840;9.188;2023-03-16T14:33:28;32.80;17.60
11599;DHT22;5855;48.840;9.188;2023-03-16T14:39:11;30.10;18.30
11599;DHT22;5855;48.840;9.188;2023-03-16T14:41:38;30.10;19.70
11599;DHT22;5855;48.840;9.188;2023-03-16T14:44:19;30.40;19.50
11599;DHT22;5855;48.840;9.188;2023-03-16T14:46:47;30.60;19.00
11599;DHT22;5855;48.840;9.188;2023-03-16T14:49:20;30.00;19.80
11599;DHT22;5855;48.840;9.188;2023-03-16T14:51:48;29.70;19.50
11599;DHT22;5855;48.840;9.188;2023-03-16T14:54:19;25.90;20.70
11599;DHT22;5855;48.840;9.188;2023-03-16T14:56:47;24.80;22.00
11599;DHT22;5855;48.840;9.188;2023-03-16T14:59:15;23.20;22.40
11599;DHT22;5855;48.840;9.188;2023-03-16T15:01:42;22.50;23.50
11599;DHT22;5855;48.840;9.188;2023-03-16T15:04:12;23.20;23.90
11599;DHT22;5855;48.840;9.188;2023-03-16T15:06:40;24.30;23.10
11599;DHT22;5855;48.840;9.188;2023-03-16T15:09:23;24.30;23.30
11599;DHT22;5855;48.840;9.188;2023-03-16T15:11:52;24.30;23.20
11599;DHT22;5855;48.840;9.188;2023-03-16T15:14:20;23.90;23.40
11599;DHT22;5855;48.840;9.188;2023-03-16T15:17:11;23.90;23.70
11599;DHT22;5855;48.840;9.188;2023-03-16T15:19:38;24.20;23.80
11599;DHT22;5855;48.840;9.188;2023-03-16T15:22:05;24.10;23.50
11599;DHT22;5855;48.840;9.188;2023-03-16T15:24:34;23.80;23.60
11599;DHT22;5855;48.840;9.188;2023-03-16T15:27:01;23.70;23.90
11599;DHT22;5855;48.840;9.188;2023-03-16T15:29:28;23.40;24.60
11599;DHT22;5855;48.840;9.188;2023-03-16T15:31:55;23.00;24.60
11599;DHT22;5855;48.840;9.188;2023-03-16T15:34:22;22.60;25.40
11599;DHT22;5855;48.840;9.188;2023-03-16T15:36:49;22.00;25.90
11599;DHT22;5855;48.840;9.188;2023-03-16T15:39:20;21.60;26.70
11599;DHT22;5855;48.840;9.188;2023-03-16T15:41:50;21.00;26.90
11599;DHT22;5855;48.840;9.188;2023-03-16T15:44:17;21.00;27.30
11599;DHT22;5855;48.840;9.188;2023-03-16T15:46:44;20.40;26.70
11599;DHT22;5855;48.840;9.188;2023-03-16T15:49:11;19.90;27.80
11599;DHT22;5855;48.840;9.188;2023-03-16T15:51:38;19.40;28.60
11599;DHT22;5855;48.840;9.188;2023-03-16T15:54:06;18.90;28.90
11599;DHT22;5855;48.840;9.188;2023-03-16T15:56:36;18.40;29.70
11599;DHT22;5855;48.840;9.188;2023-03-16T15:59:11;17.80;30.00
11599;DHT22;5855;48.840;9.188;2023-03-16T16:01:42;17.80;30.60
11599;DHT22;5855;48.840;9.188;2023-03-16T16:04:13;17.40;31.50
11599;DHT22;5855;48.840;9.188;2023-03-16T16:06:42;17.20;32.20
11599;DHT22;5855;48.840;9.188;2023-03-16T16:09:09;17.10;33.20
11599;DHT22;5855;48.840;9.188;2023-03-16T16:11:36;16.80;33.70